sensor_id;sensor_type;location;lat;lon;timestamp;pressure;altitude;pressure_sealevel;temperature;humidity
11347;BME280;5728;42.722;23.258;2023-01-27T00:00:42;93936.84;;;3.26;88.81
11347;BME280;5728;42.722;23.258;2023-01-27T00:03:11;93929.97;;;3.43;88.35
11347;BME280;5728;42.722;23.258;2023-01-27T00:05:37;93940.22;;;3.35;87.87
11347;BME280;5728;42.722;23.258;2023-01-27T00:08:06;93930.03;;;3.32;89.09
11347;BME280;5728;42.722;23.258;2023-01-27T00:10:33;93931.75;;;3.19;87.05
11347;BME280;5728;42.722;23.258;2023-01-27T00:12:59;93924.91;;;3.18;87.24
11347;BME280;5728;42.722;23.258;2023-01-27T00:15:43;93929.16;;;3.35;87.69
11347;BME280;5728;42.722;23.258;2023-01-27T00:18:10;93918.91;;;3.22;87.96
11347;BME280;5728;42.722;23.258;2023-01-27T00:20:37;93908.69;;;3.15;89.00
11347;BME280;5728;42.722;23.258;2023-01-27T00:23:24;93912.91;;;3.42;88.87
11347;BME280;5728;42.722;23.258;2023-01-27T00:26:10;93900.94;;;3.38;87.39
11347;BME280;5728;42.722;23.258;2023-01-27T00:28:38;93893.25;;;3.48;87.77
11347;BME280;5728;42.722;23.258;2023-01-27T00:31:07;93899.28;;;3.18;88.74
11347;BME280;5728;42.722;23.258;2023-01-27T00:33:51;93889.88;;;3.23;87.71
11347;BME280;5728;42.722;23.258;2023-01-27T00:36:18;93903.53;;;3.39;90.10
11347;BME280;5728;42.722;23.258;2023-01-27T00:38:46;93891.50;;;3.61;87.56
11347;BME280;5728;42.722;23.258;2023-01-27T00:41:13;93906.03;;;3.57;87.38
11347;BME280;5728;42.722;23.258;2023-01-27T00:43:44;93899.19;;;3.56;87.81
11347;BME280;5728;42.722;23.258;2023-01-27T00:46:11;93895.91;;;3.01;88.13
11347;BME280;5728;42.722;23.258;2023-01-27T00:48:38;93890.81;;;2.83;89.96
11347;BME280;5728;42.722;23.258;2023-01-27T00:51:04;93909.50;;;3.37;89.44
11347;BME280;5728;42.722;23.258;2023-01-27T00:53:31;93916.28;;;3.53;87.69
11347;BME280;5728;42.722;23.258;2023-01-27T00:55:59;93892.41;;;3.45;86.98
11347;BME280;5728;42.722;23.258;2023-01-27T00:58:27;93899.22;;;3.50;87.54
11347;BME280;5728;42.722;23.258;2023-01-27T01:00:55;93906.06;;;3.47;86.59
11347;BME280;5728;42.722;23.258;2023-01-27T01:03:23;93906.13;;;3.21;87.75
11347;BME280;5728;42.722;23.258;2023-01-27T01:05:51;93894.06;;;3.61;90.29
11347;BME280;5728;42.722;23.258;2023-01-27T01:08:17;93911.19;;;3.44;88.11
11347;BME280;5728;42.722;23.258;2023-01-27T01:10:44;93882.13;;;3.48;87.67
11347;BME280;5728;42.722;23.258;2023-01-27T01:13:12;93886.38;;;3.50;87.49
11347;BME280;5728;42.722;23.258;2023-01-27T01:15:40;93897.53;;;3.36;88.65
11347;BME280;5728;42.722;23.258;2023-01-27T01:18:09;93897.56;;;3.27;87.60
11347;BME280;5728;42.722;23.258;2023-01-27T01:20:36;93910.38;;;3.25;88.53
11347;BME280;5728;42.722;23.258;2023-01-27T01:23:04;93895.88;;;3.16;90.17
11347;BME280;5728;42.722;23.258;2023-01-27T01:25:31;93903.56;;;3.10;89.73
11347;BME280;5728;42.722;23.258;2023-01-27T01:27:58;93914.59;;;3.49;87.64
11347;BME280;5728;42.722;23.258;2023-01-27T01:30:26;93908.59;;;3.59;86.81
11347;BME280;5728;42.722;23.258;2023-01-27T01:32:53;93900.09;;;3.36;88.08
11347;BME280;5728;42.722;23.258;2023-01-27T01:35:21;93901.84;;;3.20;87.56
11347;BME280;5728;42.722;23.258;2023-01-27T01:37:48;93899.28;;;3.32;88.10
11347;BME280;5728;42.722;23.258;2023-01-27T01:40:16;93906.06;;;3.47;87.16
11347;BME280;5728;42.722;23.258;2023-01-27T01:42:54;93911.16;;;3.54;86.44
11347;BME280;5728;42.722;23.258;2023-01-27T01:45:42;93914.56;;;3.58;88.15
11347;BME280;5728;42.722;23.258;2023-01-27T01:48:13;93918.00;;;3.57;88.06
11347;BME280;5728;42.722;23.258;2023-01-27T01:50:44;93914.53;;;3.71;85.67
11347;BME280;5728;42.722;23.258;2023-01-27T01:53:12;93916.25;;;3.60;85.90
11347;BME280;5728;42.722;23.258;2023-01-27T01:55:39;93915.38;;;3.73;86.71
11347;BME280;5728;42.722;23.258;2023-01-27T01:58:09;93904.31;;;3.61;86.42
11347;BME280;5728;42.722;23.258;2023-01-27T02:00:38;93900.91;;;3.53;86.20
11347;BME280;5728;42.722;23.258;2023-01-27T02:03:05;93888.97;;;3.43;87.68
11347;BME280;5728;42.722;23.258;2023-01-27T02:05:35;93887.28;;;3.39;88.19
11347;BME280;5728;42.722;23.258;2023-01-27T02:08:06;93887.28;;;3.39;87.29
11347;BME280;5728;42.722;23.258;2023-01-27T02:10:36;93877.91;;;3.30;87.52
11347;BME280;5728;42.722;23.258;2023-01-27T02:13:03;93874.53;;;3.30;87.01
11347;BME280;5728;42.722;23.258;2023-01-27T02:15:30;93864.25;;;3.28;88.25
11347;BME280;5728;42.722;23.258;2023-01-27T02:17:59;93848.03;;;3.40;88.11
11347;BME280;5728;42.722;23.258;2023-01-27T02:20:30;93853.22;;;3.03;87.40
11347;BME280;5728;42.722;23.258;2023-01-27T02:23:04;93851.56;;;2.28;90.39
11347;BME280;5728;42.722;23.258;2023-01-27T02:25:47;93840.44;;;2.14;93.24
11347;BME280;5728;42.722;23.258;2023-01-27T02:28:14;93842.94;;;1.79;93.70
11347;BME280;5728;42.722;23.258;2023-01-27T02:30:40;93827.69;;;2.19;93.62
11347;BME280;5728;42.722;23.258;2023-01-27T02:33:10;93835.38;;;2.38;93.66
11347;BME280;5728;42.722;23.258;2023-01-27T02:35:41;93834.50;;;2.57;91.79
11347;BME280;5728;42.722;23.258;2023-01-27T02:38:10;93838.78;;;2.66;92.08
11347;BME280;5728;42.722;23.258;2023-01-27T02:40:38;93842.16;;;2.70;92.71
11347;BME280;5728;42.722;23.258;2023-01-27T02:43:07;93843.03;;;2.44;91.70
11347;BME280;5728;42.722;23.258;2023-01-27T02:45:34;93842.19;;;2.50;92.50
11347;BME280;5728;42.722;23.258;2023-01-27T02:48:00;93835.31;;;2.88;92.97
11347;BME280;5728;42.722;23.258;2023-01-27T02:50:27;93848.97;;;2.99;91.50
11347;BME280;5728;42.722;23.258;2023-01-27T02:52:54;93838.75;;;2.84;90.79
11347;BME280;5728;42.722;23.258;2023-01-27T02:55:20;93849.84;;;2.91;90.65
11347;BME280;5728;42.722;23.258;2023-01-27T02:57:47;93849.81;;;2.98;90.75
11347;BME280;5728;42.722;23.258;2023-01-27T03:00:16;93841.25;;;3.08;89.78
11347;BME280;5728;42.722;23.258;2023-01-27T03:02:43;93852.38;;;2.85;89.85
11347;BME280;5728;42.722;23.258;2023-01-27T03:05:09;93843.88;;;2.84;89.93
11347;BME280;5728;42.722;23.258;2023-01-27T03:07:36;93832.81;;;2.31;89.79
11347;BME280;5728;42.722;23.258;2023-01-27T03:10:03;93842.19;;;2.48;92.07
11347;BME280;5728;42.722;23.258;2023-01-27T03:12:30;93843.03;;;2.35;93.66
11347;BME280;5728;42.722;23.258;2023-01-27T03:14:56;93837.06;;;2.48;94.36
11347;BME280;5728;42.722;23.258;2023-01-27T03:17:42;93828.50;;;2.93;91.43
11347;BME280;5728;42.722;23.258;2023-01-27T03:20:26;93831.06;;;2.78;88.95
11347;BME280;5728;42.722;23.258;2023-01-27T03:22:53;93823.44;;;2.09;92.58
11347;BME280;5728;42.722;23.258;2023-01-27T03:25:20;93811.47;;;2.39;93.25
11347;BME280;5728;42.722;23.258;2023-01-27T03:27:47;93810.63;;;2.63;92.90
11347;BME280;5728;42.722;23.258;2023-01-27T03:30:14;93802.91;;;2.83;92.01
11347;BME280;5728;42.722;23.258;2023-01-27T03:32:42;93811.50;;;2.59;92.32
11347;BME280;5728;42.722;23.258;2023-01-27T03:35:11;93811.44;;;2.80;91.35
11347;BME280;5728;42.722;23.258;2023-01-27T03:37:39;93805.50;;;2.45;91.51
11347;BME280;5728;42.722;23.258;2023-01-27T03:40:23;93814.88;;;2.69;92.13
11347;BME280;5728;42.722;23.258;2023-01-27T03:43:07;93807.16;;;2.96;92.24
11347;BME280;5728;42.722;23.258;2023-01-27T03:45:51;93796.88;;;3.00;89.65
11347;BME280;5728;42.722;23.258;2023-01-27T03:48:36;93783.28;;;2.86;89.32
11347;BME280;5728;42.722;23.258;2023-01-27T03:51:05;93780.75;;;2.71;89.53
11347;BME280;5728;42.722;23.258;2023-01-27T03:53:32;93777.38;;;2.49;91.50
11347;BME280;5728;42.722;23.258;2023-01-27T03:55:59;93784.19;;;2.52;91.68
11347;BME280;5728;42.722;23.258;2023-01-27T03:58:27;93778.19;;;2.65;92.08
11347;BME280;5728;42.722;23.258;2023-01-27T04:00:54;93774.69;;;3.05;90.39
11347;BME280;5728;42.722;23.258;2023-01-27T04:03:21;93781.66;;;2.13;91.66
11347;BME280;5728;42.722;23.258;2023-01-27T04:06:08;93775.69;;;2.21;93.55
11347;BME280;5728;42.722;23.258;2023-01-27T04:08:52;93793.56;;;2.47;93.37
11347;BME280;5728;42.722;23.258;2023-01-27T04:11:19;93797.84;;;2.45;94.75
11347;BME280;5728;42.722;23.258;2023-01-27T04:14:03;93807.22;;;2.61;93.70
11347;BME280;5728;42.722;23.258;2023-01-27T04:16:30;93820.78;;;3.08;91.42
11347;BME280;5728;42.722;23.258;2023-01-27T04:18:57;93834.47;;;2.92;91.59
11347;BME280;5728;42.722;23.258;2023-01-27T04:21:25;93845.59;;;2.38;93.54
11347;BME280;5728;42.722;23.258;2023-01-27T04:23:51;93844.69;;;2.05;94.33
11347;BME280;5728;42.722;23.258;2023-01-27T04:26:18;93843.91;;;2.48;94.25
11347;BME280;5728;42.722;23.258;2023-01-27T04:28:44;93850.69;;;2.73;92.83
11347;BME280;5728;42.722;23.258;2023-01-27T04:31:11;93858.34;;;3.06;91.83
11347;BME280;5728;42.722;23.258;2023-01-27T04:33:38;93860.00;;;3.27;89.46
11347;BME280;5728;42.722;23.258;2023-01-27T04:36:05;93866.81;;;3.28;88.35
11347;BME280;5728;42.722;23.258;2023-01-27T04:38:33;93867.69;;;3.26;90.94
11347;BME280;5728;42.722;23.258;2023-01-27T04:40:59;93876.28;;;2.59;90.37
11347;BME280;5728;42.722;23.258;2023-01-27T04:43:25;93860.94;;;2.26;92.53
11347;BME280;5728;42.722;23.258;2023-01-27T04:45:52;93866.91;;;2.28;93.57
11347;BME280;5728;42.722;23.258;2023-01-27T04:48:18;93882.25;;;2.24;92.38
11347;BME280;5728;42.722;23.258;2023-01-27T04:50:45;93878.84;;;2.43;93.44
11347;BME280;5728;42.722;23.258;2023-01-27T04:53:11;93871.13;;;2.14;92.74
11347;BME280;5728;42.722;23.258;2023-01-27T04:55:39;93863.47;;;2.16;93.61
11347;BME280;5728;42.722;23.258;2023-01-27T04:58:07;93866.03;;;2.16;94.28
11347;BME280;5728;42.722;23.258;2023-01-27T05:00:33;93891.59;;;2.14;92.94
11347;BME280;5728;42.722;23.258;2023-01-27T05:02:59;93890.75;;;2.17;93.24
11347;BME280;5728;42.722;23.258;2023-01-27T05:05:28;93880.50;;;2.08;94.51
11347;BME280;5728;42.722;23.258;2023-01-27T05:07:55;93866.88;;;2.18;94.45
11347;BME280;5728;42.722;23.258;2023-01-27T05:10:21;93875.28;;;1.67;93.69
11347;BME280;5728;42.722;23.258;2023-01-27T05:12:49;93876.22;;;1.96;94.72
11347;BME280;5728;42.722;23.258;2023-01-27T05:15:16;93875.44;;;2.53;94.37
11347;BME280;5728;42.722;23.258;2023-01-27T05:17:42;93878.84;;;2.46;93.62
11347;BME280;5728;42.722;23.258;2023-01-27T05:20:09;93878.00;;;2.47;92.55
11347;BME280;5728;42.722;23.258;2023-01-27T05:22:36;93871.03;;;1.66;94.24
11347;BME280;5728;42.722;23.258;2023-01-27T05:25:02;93875.34;;;1.80;95.61
11347;BME280;5728;42.722;23.258;2023-01-27T05:27:29;93876.19;;;1.84;95.22
11347;BME280;5728;42.722;23.258;2023-01-27T05:29:57;93868.53;;;1.91;95.59
11347;BME280;5728;42.722;23.258;2023-01-27T05:32:23;93866.06;;;2.34;94.80
11347;BME280;5728;42.722;23.258;2023-01-27T05:34:50;93861.72;;;1.89;95.28
11347;BME280;5728;42.722;23.258;2023-01-27T05:37:16;93853.09;;;1.51;96.59
11347;BME280;5728;42.722;23.258;2023-01-27T05:39:43;93844.50;;;1.37;96.40
11347;BME280;5728;42.722;23.258;2023-01-27T05:42:09;93853.00;;;1.31;96.51
11347;BME280;5728;42.722;23.258;2023-01-27T05:44:35;93845.31;;;1.20;97.18
11347;BME280;5728;42.722;23.258;2023-01-27T05:47:03;93845.28;;;1.19;97.36
11347;BME280;5728;42.722;23.258;2023-01-27T05:49:31;93849.41;;;0.96;97.00
11347;BME280;5728;42.722;23.258;2023-01-27T05:51:57;93841.13;;;1.44;98.20
11347;BME280;5728;42.722;23.258;2023-01-27T05:54:24;93840.03;;;0.92;97.79
11347;BME280;5728;42.722;23.258;2023-01-27T05:56:51;93844.47;;;1.29;99.42
11347;BME280;5728;42.722;23.258;2023-01-27T05:59:18;93841.97;;;1.41;98.62
11347;BME280;5728;42.722;23.258;2023-01-27T06:01:45;93854.41;;;0.81;98.56
11347;BME280;5728;42.722;23.258;2023-01-27T06:04:13;93868.72;;;0.60;99.11
11347;BME280;5728;42.722;23.258;2023-01-27T06:06:39;93874.50;;;0.38;100.00
11347;BME280;5728;42.722;23.258;2023-01-27T06:09:06;93874.72;;;0.65;100.00
11347;BME280;5728;42.722;23.258;2023-01-27T06:11:32;93865.41;;;0.68;100.00
11347;BME280;5728;42.722;23.258;2023-01-27T06:13:58;93863.88;;;0.92;99.82
11347;BME280;5728;42.722;23.258;2023-01-27T06:16:25;93856.19;;;0.94;100.00
11347;BME280;5728;42.722;23.258;2023-01-27T06:18:52;93859.69;;;1.11;99.40
11347;BME280;5728;42.722;23.258;2023-01-27T06:21:20;93853.84;;;1.25;99.24
11347;BME280;5728;42.722;23.258;2023-01-27T06:23:47;93865.91;;;1.64;98.16
11347;BME280;5728;42.722;23.258;2023-01-27T06:26:16;93865.00;;;1.47;96.63
11347;BME280;5728;42.722;23.258;2023-01-27T06:28:43;93865.09;;;1.68;97.48
11347;BME280;5728;42.722;23.258;2023-01-27T06:31:12;93868.44;;;1.58;95.05
11347;BME280;5728;42.722;23.258;2023-01-27T06:33:39;93871.84;;;1.57;95.81
11347;BME280;5728;42.722;23.258;2023-01-27T06:36:08;93868.44;;;1.60;95.48
11347;BME280;5728;42.722;23.258;2023-01-27T06:38:37;93871.91;;;1.72;95.41
11347;BME280;5728;42.722;23.258;2023-01-27T06:41:04;93875.25;;;1.62;94.97
11347;BME280;5728;42.722;23.258;2023-01-27T06:43:30;93872.78;;;1.94;95.89
11347;BME280;5728;42.722;23.258;2023-01-27T06:45:57;93871.91;;;1.81;92.72
11347;BME280;5728;42.722;23.258;2023-01-27T06:48:24;93875.28;;;1.70;93.29
11347;BME280;5728;42.722;23.258;2023-01-27T06:50:51;93879.56;;;1.72;93.52
11347;BME280;5728;42.722;23.258;2023-01-27T06:53:18;93874.50;;;1.90;92.93
11347;BME280;5728;42.722;23.258;2023-01-27T06:55:46;93876.84;;;1.30;93.63
11347;BME280;5728;42.722;23.258;2023-01-27T06:58:14;93877.84;;;1.70;94.92
11347;BME280;5728;42.722;23.258;2023-01-27T07:00:41;93886.28;;;1.54;94.02
11347;BME280;5728;42.722;23.258;2023-01-27T07:03:10;93883.84;;;1.79;95.68
11347;BME280;5728;42.722;23.258;2023-01-27T07:05:36;93883.72;;;1.48;95.96
11347;BME280;5728;42.722;23.258;2023-01-27T07:08:04;93887.97;;;1.44;95.76
11347;BME280;5728;42.722;23.258;2023-01-27T07:10:30;93890.69;;;1.83;95.25
11347;BME280;5728;42.722;23.258;2023-01-27T07:13:04;93886.50;;;2.29;94.24
11347;BME280;5728;42.722;23.258;2023-01-27T07:15:31;93900.97;;;2.17;92.04
11347;BME280;5728;42.722;23.258;2023-01-27T07:17:58;93888.22;;;2.21;91.07
11347;BME280;5728;42.722;23.258;2023-01-27T07:20:24;93883.09;;;2.35;90.99
11347;BME280;5728;42.722;23.258;2023-01-27T07:22:53;93884.81;;;2.36;90.99
11347;BME280;5728;42.722;23.258;2023-01-27T07:25:21;93884.81;;;2.57;91.02
11347;BME280;5728;42.722;23.258;2023-01-27T07:27:48;93883.09;;;2.35;90.87
11347;BME280;5728;42.722;23.258;2023-01-27T07:30:16;93884.81;;;2.49;90.77
11347;BME280;5728;42.722;23.258;2023-01-27T07:32:43;93889.09;;;2.73;90.13
11347;BME280;5728;42.722;23.258;2023-01-27T07:35:10;93875.44;;;2.86;89.12
11347;BME280;5728;42.722;23.258;2023-01-27T07:37:36;93883.97;;;2.49;89.26
11347;BME280;5728;42.722;23.258;2023-01-27T07:40:04;93889.94;;;2.57;90.31
11347;BME280;5728;42.722;23.258;2023-01-27T07:42:31;93889.03;;;2.01;90.05
11347;BME280;5728;42.722;23.258;2023-01-27T07:44:57;93892.28;;;1.60;90.70
11347;BME280;5728;42.722;23.258;2023-01-27T07:47:25;93891.53;;;1.90;91.45
11347;BME280;5728;42.722;23.258;2023-01-27T07:49:52;93899.00;;;1.42;91.02
11347;BME280;5728;42.722;23.258;2023-01-27T07:52:19;93893.81;;;1.22;92.32
11347;BME280;5728;42.722;23.258;2023-01-27T07:54:45;93887.94;;;1.35;93.41
11347;BME280;5728;42.722;23.258;2023-01-27T07:57:12;93890.63;;;1.68;93.13
11347;BME280;5728;42.722;23.258;2023-01-27T07:59:39;93883.81;;;1.76;93.01
11347;BME280;5728;42.722;23.258;2023-01-27T08:02:05;93897.50;;;1.90;91.38
11347;BME280;5728;42.722;23.258;2023-01-27T08:04:33;93904.31;;;1.88;91.97
11347;BME280;5728;42.722;23.258;2023-01-27T08:07:00;93894.19;;;2.19;91.55
11347;BME280;5728;42.722;23.258;2023-01-27T08:09:27;93893.22;;;1.85;90.10
11347;BME280;5728;42.722;23.258;2023-01-27T08:11:53;93891.50;;;1.73;91.50
11347;BME280;5728;42.722;23.258;2023-01-27T08:14:20;93888.03;;;1.61;89.92
11347;BME280;5728;42.722;23.258;2023-01-27T08:16:47;93886.19;;;1.28;90.94
11347;BME280;5728;42.722;23.258;2023-01-27T08:19:14;93896.66;;;1.85;92.30
11347;BME280;5728;42.722;23.258;2023-01-27T08:21:42;93896.72;;;2.08;91.48
11347;BME280;5728;42.722;23.258;2023-01-27T08:24:09;93878.88;;;2.61;89.89
11347;BME280;5728;42.722;23.258;2023-01-27T08:26:37;93884.81;;;2.45;87.15
11347;BME280;5728;42.722;23.258;2023-01-27T08:29:03;93894.19;;;2.19;87.98
11347;BME280;5728;42.722;23.258;2023-01-27T08:31:30;93903.56;;;2.29;88.32
11347;BME280;5728;42.722;23.258;2023-01-27T08:33:57;93903.59;;;2.64;89.87
11347;BME280;5728;42.722;23.258;2023-01-27T08:36:24;93898.25;;;1.58;89.44
11347;BME280;5728;42.722;23.258;2023-01-27T08:38:52;93898.25;;;1.62;90.63
11347;BME280;5728;42.722;23.258;2023-01-27T08:41:20;93910.28;;;1.89;91.66
11347;BME280;5728;42.722;23.258;2023-01-27T08:43:48;93906.88;;;1.87;90.54
11347;BME280;5728;42.722;23.258;2023-01-27T08:46:15;93918.38;;;1.06;91.32
11347;BME280;5728;42.722;23.258;2023-01-27T08:48:42;93914.19;;;1.16;93.76
11347;BME280;5728;42.722;23.258;2023-01-27T08:51:11;93909.91;;;1.10;92.80
11347;BME280;5728;42.722;23.258;2023-01-27T08:53:39;93906.56;;;1.17;94.08
11347;BME280;5728;42.722;23.258;2023-01-27T08:56:10;93907.63;;;1.60;93.93
11347;BME280;5728;42.722;23.258;2023-01-27T08:58:37;93904.97;;;1.42;92.83
11347;BME280;5728;42.722;23.258;2023-01-27T09:01:05;93905.19;;;1.93;92.54
11347;BME280;5728;42.722;23.258;2023-01-27T09:03:32;93916.34;;;2.18;91.22
11347;BME280;5728;42.722;23.258;2023-01-27T09:05:59;93900.94;;;2.02;91.20
11347;BME280;5728;42.722;23.258;2023-01-27T09:08:27;93907.66;;;1.69;90.78
11347;BME280;5728;42.722;23.258;2023-01-27T09:10:54;93909.34;;;1.64;92.25
11347;BME280;5728;42.722;23.258;2023-01-27T09:13:22;93903.31;;;1.47;91.70
11347;BME280;5728;42.722;23.258;2023-01-27T09:15:50;93904.31;;;1.88;92.67
11347;BME280;5728;42.722;23.258;2023-01-27T09:18:17;93901.53;;;1.37;91.29
11347;BME280;5728;42.722;23.258;2023-01-27T09:20:44;93892.25;;;1.48;91.38
11347;BME280;5728;42.722;23.258;2023-01-27T09:23:10;93900.63;;;1.23;92.69
11347;BME280;5728;42.722;23.258;2023-01-27T09:25:37;93908.25;;;1.15;92.22
11347;BME280;5728;42.722;23.258;2023-01-27T09:28:04;93893.00;;;1.31;91.99
11347;BME280;5728;42.722;23.258;2023-01-27T09:30:32;93903.13;;;1.17;92.75
11347;BME280;5728;42.722;23.258;2023-01-27T09:32:59;93903.97;;;1.16;93.14
11347;BME280;5728;42.722;23.258;2023-01-27T09:35:30;93885.97;;;0.93;93.86
11347;BME280;5728;42.722;23.258;2023-01-27T09:38:02;93887.06;;;1.33;94.04
11347;BME280;5728;42.722;23.258;2023-01-27T09:40:32;93881.69;;;0.85;93.37
11347;BME280;5728;42.722;23.258;2023-01-27T09:43:44;93873.22;;;0.92;94.45
11347;BME280;5728;42.722;23.258;2023-01-27T09:46:27;93866.53;;;1.15;94.84
11347;BME280;5728;42.722;23.258;2023-01-27T09:49:20;93874.16;;;1.09;94.63
11347;BME280;5728;42.722;23.258;2023-01-27T09:52:05;93877.59;;;1.18;94.72
11347;BME280;5728;42.722;23.258;2023-01-27T09:54:48;93864.06;;;1.36;94.43
11347;BME280;5728;42.722;23.258;2023-01-27T09:57:23;93862.25;;;1.05;93.68
11347;BME280;5728;42.722;23.258;2023-01-27T10:00:13;93860.53;;;1.08;93.34
11347;BME280;5728;42.722;23.258;2023-01-27T10:02:50;93853.00;;;1.34;95.43
11347;BME280;5728;42.722;23.258;2023-01-27T10:05:23;93858.78;;;0.98;94.56
11347;BME280;5728;42.722;23.258;2023-01-27T10:07:56;93849.44;;;0.97;95.53
11347;BME280;5728;42.722;23.258;2023-01-27T10:10:27;93852.91;;;1.16;95.83
11347;BME280;5728;42.722;23.258;2023-01-27T10:13:05;93840.91;;;0.97;95.00
11347;BME280;5728;42.722;23.258;2023-01-27T10:15:40;93840.16;;;1.14;95.69
11347;BME280;5728;42.722;23.258;2023-01-27T10:18:16;93841.03;;;1.21;96.23
11347;BME280;5728;42.722;23.258;2023-01-27T10:20:52;93840.09;;;1.04;96.20
11347;BME280;5728;42.722;23.258;2023-01-27T10:23:27;93838.44;;;1.10;95.87
11347;BME280;5728;42.722;23.258;2023-01-27T10:26:00;93844.34;;;1.03;95.92
11347;BME280;5728;42.722;23.258;2023-01-27T10:28:32;93841.88;;;1.17;96.46
11347;BME280;5728;42.722;23.258;2023-01-27T10:31:00;93847.81;;;1.16;94.51
11347;BME280;5728;42.722;23.258;2023-01-27T10:33:32;93832.34;;;0.89;95.43
11347;BME280;5728;42.722;23.258;2023-01-27T10:36:02;93840.94;;;1.01;96.74
11347;BME280;5728;42.722;23.258;2023-01-27T10:38:34;93836.50;;;0.70;95.98
11347;BME280;5728;42.722;23.258;2023-01-27T10:41:05;93834.09;;;0.96;96.59
11347;BME280;5728;42.722;23.258;2023-01-27T10:43:38;93840.03;;;0.90;97.08
11347;BME280;5728;42.722;23.258;2023-01-27T10:46:11;93848.47;;;0.80;97.50
11347;BME280;5728;42.722;23.258;2023-01-27T10:48:44;93848.47;;;0.79;96.28
11347;BME280;5728;42.722;23.258;2023-01-27T10:51:14;93830.66;;;0.88;97.05
11347;BME280;5728;42.722;23.258;2023-01-27T10:53:47;93829.03;;;1.02;96.19
11347;BME280;5728;42.722;23.258;2023-01-27T10:56:16;93826.63;;;1.32;96.09
11347;BME280;5728;42.722;23.258;2023-01-27T10:58:50;93829.22;;;1.47;95.09
11347;BME280;5728;42.722;23.258;2023-01-27T11:01:25;93832.56;;;1.31;93.71
11347;BME280;5728;42.722;23.258;2023-01-27T11:03:56;93836.03;;;1.51;94.91
11347;BME280;5728;42.722;23.258;2023-01-27T11:06:26;93836.03;;;1.41;94.56
11347;BME280;5728;42.722;23.258;2023-01-27T11:08:57;93835.09;;;1.20;95.15
11347;BME280;5728;42.722;23.258;2023-01-27T11:11:24;93824.88;;;1.20;96.22
11347;BME280;5728;42.722;23.258;2023-01-27T11:14:11;93838.38;;;1.00;94.89
11347;BME280;5728;42.722;23.258;2023-01-27T11:16:41;93829.00;;;0.93;95.43
11347;BME280;5728;42.722;23.258;2023-01-27T11:19:12;93833.38;;;1.21;96.45
11347;BME280;5728;42.722;23.258;2023-01-27T11:21:41;93827.56;;;1.61;96.71
11347;BME280;5728;42.722;23.258;2023-01-27T11:24:13;93828.38;;;1.50;94.08
11347;BME280;5728;42.722;23.258;2023-01-27T11:26:41;93817.97;;;1.06;94.14
11347;BME280;5728;42.722;23.258;2023-01-27T11:29:14;93818.91;;;1.15;94.85
11347;BME280;5728;42.722;23.258;2023-01-27T11:31:43;93819.03;;;1.56;96.56
11347;BME280;5728;42.722;23.258;2023-01-27T11:34:17;93821.44;;;1.12;94.64
11347;BME280;5728;42.722;23.258;2023-01-27T11:36:46;93808.63;;;1.02;95.66
11347;BME280;5728;42.722;23.258;2023-01-27T11:39:13;93804.25;;;0.86;95.51
11347;BME280;5728;42.722;23.258;2023-01-27T11:41:43;93809.44;;;0.96;96.89
11347;BME280;5728;42.722;23.258;2023-01-27T11:44:12;93807.75;;;1.00;96.92
11347;BME280;5728;42.722;23.258;2023-01-27T11:46:42;93811.09;;;0.91;96.47
11347;BME280;5728;42.722;23.258;2023-01-27T11:49:17;93813.53;;;0.69;98.68
11347;BME280;5728;42.722;23.258;2023-01-27T11:51:47;93811.94;;;0.83;98.51
11347;BME280;5728;42.722;23.258;2023-01-27T11:54:14;93816.16;;;0.81;98.33
11347;BME280;5728;42.722;23.258;2023-01-27T11:56:44;93816.16;;;0.78;98.35
11347;BME280;5728;42.722;23.258;2023-01-27T11:59:12;93805.09;;;0.79;98.69
11347;BME280;5728;42.722;23.258;2023-01-27T12:01:41;93797.53;;;1.01;99.46
11347;BME280;5728;42.722;23.258;2023-01-27T12:04:12;93801.88;;;1.19;99.07
11347;BME280;5728;42.722;23.258;2023-01-27T12:06:41;93808.66;;;1.08;97.37
11347;BME280;5728;42.722;23.258;2023-01-27T12:09:17;93799.38;;;1.25;97.50
11347;BME280;5728;42.722;23.258;2023-01-27T12:12:07;93801.16;;;1.58;97.51
11347;BME280;5728;42.722;23.258;2023-01-27T12:14:34;93806.97;;;1.19;96.75
11347;BME280;5728;42.722;23.258;2023-01-27T12:17:01;93807.88;;;1.22;96.85
11347;BME280;5728;42.722;23.258;2023-01-27T12:19:29;93805.41;;;1.48;97.84
11347;BME280;5728;42.722;23.258;2023-01-27T12:21:58;93800.22;;;1.30;96.76
11347;BME280;5728;42.722;23.258;2023-01-27T12:24:28;93804.31;;;0.96;96.66
11347;BME280;5728;42.722;23.258;2023-01-27T12:26:55;93811.16;;;0.99;97.09
11347;BME280;5728;42.722;23.258;2023-01-27T12:29:24;93810.25;;;0.85;97.76
11347;BME280;5728;42.722;23.258;2023-01-27T12:31:52;93812.00;;;0.98;98.88
11347;BME280;5728;42.722;23.258;2023-01-27T12:34:26;93814.41;;;0.68;98.35
11347;BME280;5728;42.722;23.258;2023-01-27T12:36:54;93806.72;;;0.71;98.89
11347;BME280;5728;42.722;23.258;2023-01-27T12:39:27;93805.16;;;0.89;98.59
11347;BME280;5728;42.722;23.258;2023-01-27T12:41:55;93804.28;;;0.83;98.56
11347;BME280;5728;42.722;23.258;2023-01-27T12:44:22;93803.50;;;1.02;98.68
11347;BME280;5728;42.722;23.258;2023-01-27T12:46:57;93804.28;;;0.89;99.12
11347;BME280;5728;42.722;23.258;2023-01-27T12:49:25;93808.59;;;0.93;99.61
11347;BME280;5728;42.722;23.258;2023-01-27T12:51:55;93806.97;;;1.16;100.00
11347;BME280;5728;42.722;23.258;2023-01-27T12:54:22;93806.97;;;1.19;98.41
11347;BME280;5728;42.722;23.258;2023-01-27T12:56:51;93805.19;;;0.97;98.49
11347;BME280;5728;42.722;23.258;2023-01-27T12:59:19;93805.09;;;0.79;98.86
11347;BME280;5728;42.722;23.258;2023-01-27T13:02:00;93806.91;;;0.98;100.00
11347;BME280;5728;42.722;23.258;2023-01-27T13:04:28;93796.69;;;0.98;99.12
11347;BME280;5728;42.722;23.258;2023-01-27T13:07:02;93805.13;;;0.85;100.00
11347;BME280;5728;42.722;23.258;2023-01-27T13:09:33;93795.84;;;0.97;100.00
11347;BME280;5728;42.722;23.258;2023-01-27T13:12:11;93794.13;;;0.96;100.00
11347;BME280;5728;42.722;23.258;2023-01-27T13:14:41;93796.66;;;0.92;100.00
11347;BME280;5728;42.722;23.258;2023-01-27T13:17:27;93797.63;;;1.15;100.00
11347;BME280;5728;42.722;23.258;2023-01-27T13:19:57;93796.75;;;1.16;99.70
11347;BME280;5728;42.722;23.258;2023-01-27T13:22:25;93788.28;;;1.20;99.61